Time;durP1;ratioP1;P1;durP2;ratioP2;P2;SDS_P1;SDS_P2;PMS_P1;PMS_P2;Temp;Humidity;BMP_temperature;BMP_pressure;BME280_temperature;BME280_humidity;BME280_pressure;Samples;Min_cycle;Max_cycle;Signal;HPM_P1;HPM_P2
2021/07/10 00:00:07;;;;;;;33.83;16.67;;;15.80;99.90;;;;;;4997190;28;20370;-69
2021/07/10 00:02:33;;;;;;;26.25;16.80;;;15.80;99.90;;;;;;4989621;28;20072;-69
2021/07/10 00:04:58;;;;;;;31.80;21.65;;;15.80;99.90;;;;;;4999187;28;20497;-69
2021/07/10 00:07:24;;;;;;;27.60;17.20;;;15.80;99.90;;;;;;4998035;28;20486;-69
2021/07/10 00:09:49;;;;;;;27.48;19.08;;;15.80;99.90;;;;;;4996979;28;20029;-69
2021/07/10 00:12:15;;;;;;;29.02;18.52;;;15.80;99.90;;;;;;4999286;28;20496;-69
2021/07/10 00:14:40;;;;;;;30.27;19.48;;;15.80;99.90;;;;;;4999211;28;20022;-69
2021/07/10 00:17:06;;;;;;;29.05;17.30;;;15.80;99.90;;;;;;4999373;28;20030;-69
2021/07/10 00:19:32;;;;;;;33.55;22.67;;;15.80;99.90;;;;;;4997309;28;20038;-69
2021/07/10 00:21:57;;;;;;;35.05;21.85;;;15.80;99.90;;;;;;4998299;28;20560;-72
2021/07/10 00:24:23;;;;;;;42.28;22.00;;;15.70;99.90;;;;;;4999226;28;20110;-72
2021/07/10 00:26:48;;;;;;;29.77;19.25;;;15.70;99.90;;;;;;4998857;28;20034;-69
2021/07/10 00:29:16;;;;;;;28.83;16.70;;;15.70;99.90;;;;;;4997092;28;20034;-69
2021/07/10 00:31:42;;;;;;;29.63;15.35;;;15.70;99.90;;;;;;4997380;28;20041;-69
2021/07/10 00:34:07;;;;;;;27.42;13.63;;;15.70;99.90;;;;;;4999337;28;20031;-69
2021/07/10 00:36:33;;;;;;;15.20;11.07;;;15.70;99.90;;;;;;4996231;28;20391;-69
2021/07/10 00:38:58;;;;;;;16.38;10.35;;;15.70;99.90;;;;;;4998237;28;20091;-69
2021/07/10 00:41:24;;;;;;;17.27;10.52;;;15.70;99.90;;;;;;5028917;23;20041;-79
2021/07/10 00:43:51;;;;;;;16.33;10.70;;;15.60;99.90;;;;;;5021943;28;20033;-78
2021/07/10 00:46:20;;;;;;;16.92;10.45;;;15.60;99.90;;;;;;4989232;28;20083;-78
2021/07/10 00:48:47;;;;;;;21.90;11.65;;;15.70;99.90;;;;;;5019427;28;20396;-78
2021/07/10 00:51:13;;;;;;;18.25;10.18;;;15.70;99.90;;;;;;5008396;28;20417;-79
2021/07/10 00:53:39;;;;;;;21.45;11.32;;;15.60;99.90;;;;;;4984790;28;20103;-78
2021/07/10 00:56:05;;;;;;;25.20;13.90;;;15.60;99.90;;;;;;4985165;28;20509;-79
2021/07/10 00:58:32;;;;;;;24.40;13.43;;;15.60;99.90;;;;;;5002727;28;20134;-79
2021/07/10 01:00:58;;;;;;;23.75;12.45;;;15.60;99.90;;;;;;5002368;28;20018;-79
2021/07/10 01:03:25;;;;;;;16.88;9.82;;;15.60;99.90;;;;;;5002888;28;20026;-79
2021/07/10 01:05:50;;;;;;;17.05;10.30;;;15.60;99.90;;;;;;4985389;28;20473;-79
2021/07/10 01:08:16;;;;;;;14.93;10.48;;;15.60;99.90;;;;;;5002202;28;20041;-79
2021/07/10 01:10:42;;;;;;;20.73;11.82;;;15.60;99.90;;;;;;5001161;28;20034;-79
2021/07/10 01:13:09;;;;;;;20.58;11.10;;;15.60;99.90;;;;;;5002112;28;20488;-80
2021/07/10 01:15:35;;;;;;;18.17;11.60;;;15.50;99.90;;;;;;4984789;28;20401;-80
2021/07/10 01:18:00;;;;;;;22.23;12.45;;;15.50;99.90;;;;;;5010692;28;20030;-78
2021/07/10 01:20:27;;;;;;;22.48;13.73;;;15.50;99.90;;;;;;5013607;28;20030;-79
2021/07/10 01:22:56;;;;;;;21.55;13.23;;;15.50;99.90;;;;;;5003568;28;20058;-78
2021/07/10 01:25:24;;;;;;;20.55;11.13;;;15.50;99.90;;;;;;5007347;28;20493;-78
2021/07/10 01:27:51;;;;;;;18.40;10.10;;;15.50;99.90;;;;;;4990494;28;20026;-78
2021/07/10 01:30:20;;;;;;;15.90;10.07;;;15.40;99.90;;;;;;4980944;28;20049;-78
2021/07/10 01:32:47;;;;;;;21.77;11.50;;;15.40;99.90;;;;;;5009307;28;20033;-78
2021/07/10 01:35:14;;;;;;;17.17;11.02;;;15.30;99.90;;;;;;5004415;28;20018;-79
2021/07/10 01:37:43;;;;;;;16.45;10.57;;;15.30;99.90;;;;;;5004560;28;20409;-79
2021/07/10 01:40:14;;;;;;;19.42;11.75;;;15.30;99.90;;;;;;5003229;28;20036;-78
2021/07/10 01:42:40;;;;;;;21.40;10.70;;;15.20;99.90;;;;;;5002696;28;20109;-79
2021/07/10 01:45:06;;;;;;;22.55;12.15;;;15.20;99.90;;;;;;5003649;28;20018;-79
2021/07/10 01:47:31;;;;;;;19.08;11.65;;;15.20;99.90;;;;;;5007977;28;20022;-79
2021/07/10 01:49:57;;;;;;;20.35;11.68;;;15.20;99.90;;;;;;4985648;28;20026;-79
2021/07/10 01:52:23;;;;;;;18.20;11.88;;;15.20;99.90;;;;;;4987323;28;20451;-80
2021/07/10 01:54:48;;;;;;;22.98;13.20;;;15.20;99.90;;;;;;5006457;28;20026;-79
2021/07/10 01:57:14;;;;;;;25.77;13.48;;;15.20;99.90;;;;;;5003730;28;20379;-79
2021/07/10 01:59:40;;;;;;;22.67;13.52;;;15.20;99.90;;;;;;5003739;28;20026;-79
2021/07/10 02:02:06;;;;;;;20.05;13.32;;;15.20;99.90;;;;;;4989319;28;20030;-79
2021/07/10 02:04:50;;;;;;;28.90;13.93;;;15.20;99.90;;;;;;5001615;28;20496;-79
2021/07/10 02:07:16;;;;;;;22.70;15.15;;;15.20;99.90;;;;;;4994758;28;20733;-79
2021/07/10 02:09:42;;;;;;;23.23;14.60;;;15.20;99.90;;;;;;5011208;28;20108;-79
2021/07/10 02:12:08;;;;;;;27.77;14.45;;;15.20;99.90;;;;;;5001130;28;20076;-76
2021/07/10 02:14:34;;;;;;;27.30;15.45;;;15.30;99.90;;;;;;5003237;28;20030;-76
2021/07/10 02:16:59;;;;;;;22.55;14.15;;;15.20;99.90;;;;;;5002446;28;20022;-76
2021/07/10 02:19:24;;;;;;;21.00;14.00;;;15.30;99.90;;;;;;5001654;28;20033;-75
2021/07/10 02:21:50;;;;;;;20.88;13.20;;;15.30;99.90;;;;;;5004888;28;20041;-75
2021/07/10 02:24:16;;;;;;;23.02;12.68;;;15.30;99.90;;;;;;4999542;28;20113;-75
2021/07/10 02:26:41;;;;;;;21.13;13.73;;;15.30;99.90;;;;;;5001709;28;20111;-75
2021/07/10 02:29:08;;;;;;;19.13;13.90;;;15.40;99.90;;;;;;5001362;28;20019;-75
2021/07/10 02:31:34;;;;;;;21.98;13.13;;;15.30;99.90;;;;;;5002011;28;20088;-75
2021/07/10 02:34:00;;;;;;;28.88;14.65;;;15.40;99.90;;;;;;5000526;28;20713;-75
2021/07/10 02:36:26;;;;;;;29.85;15.70;;;15.30;99.90;;;;;;5001631;28;20086;-75
2021/07/10 02:38:51;;;;;;;35.92;16.65;;;15.30;99.90;;;;;;5001339;28;20037;-75
2021/07/10 02:41:17;;;;;;;30.08;16.67;;;15.30;99.90;;;;;;5000636;28;20080;-75
2021/07/10 02:43:42;;;;;;;27.15;15.90;;;15.30;99.90;;;;;;4983615;28;20560;-75
2021/07/10 02:46:08;;;;;;;29.08;15.85;;;15.30;99.90;;;;;;5000608;28;20034;-75
2021/07/10 02:48:34;;;;;;;28.00;16.05;;;15.20;99.90;;;;;;5000837;28;20487;-75
2021/07/10 02:51:00;;;;;;;23.20;16.23;;;15.20;99.90;;;;;;5000605;28;20029;-75
2021/07/10 02:53:25;;;;;;;25.88;15.75;;;15.20;99.90;;;;;;5000975;28;20030;-75
2021/07/10 02:55:51;;;;;;;29.10;17.55;;;15.20;99.90;;;;;;4999681;28;20591;-75
2021/07/10 02:58:16;;;;;;;31.40;18.10;;;15.20;99.90;;;;;;5001176;28;20084;-75
2021/07/10 03:00:42;;;;;;;26.15;15.07;;;15.20;99.90;;;;;;4982913;28;20025;-75
2021/07/10 03:03:07;;;;;;;28.60;17.38;;;15.20;99.90;;;;;;4982106;28;20473;-75
2021/07/10 03:05:37;;;;;;;28.75;16.52;;;15.10;99.90;;;;;;5000497;28;20412;-75
2021/07/10 03:08:04;;;;;;;33.13;18.60;;;15.10;99.90;;;;;;5000610;28;20469;-75
2021/07/10 03:10:30;;;;;;;32.92;17.40;;;15.10;99.90;;;;;;4990409;28;20030;-75
2021/07/10 03:12:57;;;;;;;37.08;18.30;;;15.10;99.90;;;;;;4982607;28;20022;-75
2021/07/10 03:15:24;;;;;;;27.45;15.20;;;15.10;99.90;;;;;;5001236;28;20026;-75
2021/07/10 03:17:50;;;;;;;26.02;15.93;;;15.10;99.90;;;;;;5000949;28;20018;-75
2021/07/10 03:20:18;;;;;;;26.48;16.88;;;15.10;99.90;;;;;;5000028;28;20092;-75
2021/07/10 03:22:43;;;;;;;27.60;17.05;;;15.10;99.90;;;;;;5000465;28;20030;-75
2021/07/10 03:25:11;;;;;;;27.20;18.05;;;15.20;99.90;;;;;;4981920;28;20026;-74
2021/07/10 03:27:37;;;;;;;29.25;16.95;;;15.20;99.90;;;;;;4982178;28;20173;-76
2021/07/10 03:30:08;;;;;;;27.55;16.55;;;15.10;99.90;;;;;;5000420;28;20498;-75
2021/07/10 03:32:34;;;;;;;19.77;14.27;;;15.20;99.90;;;;;;4999755;28;20022;-75
2021/07/10 03:34:59;;;;;;;23.15;14.88;;;15.20;99.90;;;;;;5000769;28;20034;-75
2021/07/10 03:37:25;;;;;;;26.17;16.35;;;15.20;99.90;;;;;;5000305;28;20103;-75
2021/07/10 03:39:50;;;;;;;23.50;15.82;;;15.10;99.90;;;;;;4999232;28;20514;-75
2021/07/10 03:42:16;;;;;;;26.70;14.82;;;15.10;99.90;;;;;;5000300;28;20105;-75
2021/07/10 03:44:41;;;;;;;24.63;15.95;;;15.10;99.90;;;;;;4982432;28;20165;-75
2021/07/10 03:47:07;;;;;;;25.13;15.32;;;15.10;99.90;;;;;;5000843;28;20065;-75
2021/07/10 03:49:32;;;;;;;23.70;15.05;;;15.10;99.90;;;;;;4997932;28;20030;-75
2021/07/10 03:51:58;;;;;;;22.60;14.23;;;15.10;99.90;;;;;;4990860;28;20026;-74
2021/07/10 03:54:23;;;;;;;21.63;14.93;;;15.20;99.90;;;;;;4999792;28;20033;-75
2021/07/10 03:56:49;;;;;;;20.65;14.63;;;15.20;99.90;;;;;;4999103;28;20033;-75
2021/07/10 03:59:15;;;;;;;22.33;13.80;;;15.20;99.90;;;;;;4981684;28;20037;-74
2021/07/10 04:01:43;;;;;;;21.00;13.45;;;15.20;99.90;;;;;;4999604;28;20042;-75
2021/07/10 04:04:09;;;;;;;21.40;13.80;;;15.20;99.90;;;;;;4999592;28;20034;-75
2021/07/10 04:06:35;;;;;;;27.95;14.55;;;15.20;99.90;;;;;;4982070;28;20030;-75
2021/07/10 04:09:00;;;;;;;26.38;16.13;;;15.30;99.90;;;;;;4982427;28;20474;-75
2021/07/10 04:11:26;;;;;;;26.58;15.18;;;15.30;99.90;;;;;;4999386;28;20019;-74
2021/07/10 04:13:51;;;;;;;24.27;14.93;;;15.40;99.90;;;;;;5000447;28;20097;-75
2021/07/10 04:16:17;;;;;;;21.90;15.20;;;15.40;99.90;;;;;;5003387;28;20128;-75
2021/07/10 04:18:42;;;;;;;27.10;14.55;;;15.50;99.90;;;;;;5004243;28;20080;-75
2021/07/10 04:21:08;;;;;;;24.17;14.38;;;15.50;99.90;;;;;;5003647;28;20038;-75
2021/07/10 04:23:33;;;;;;;23.85;14.88;;;15.50;99.90;;;;;;5003670;28;20041;-75
2021/07/10 04:25:59;;;;;;;19.45;14.95;;;15.50;99.90;;;;;;5002930;28;20033;-74
2021/07/10 04:28:24;;;;;;;29.38;15.57;;;15.50;99.90;;;;;;5003770;28;20040;-74
2021/07/10 04:30:50;;;;;;;27.67;16.73;;;15.50;99.90;;;;;;5003470;28;20030;-75
2021/07/10 04:33:16;;;;;;;22.92;14.05;;;15.50;99.90;;;;;;5003665;28;20038;-75
2021/07/10 04:35:41;;;;;;;29.13;15.52;;;15.50;99.90;;;;;;5003216;28;20023;-75
2021/07/10 04:38:07;;;;;;;24.02;16.27;;;15.50;99.90;;;;;;5002473;28;20030;-75
2021/07/10 04:40:33;;;;;;;26.90;15.98;;;15.50;99.90;;;;;;4985351;28;20108;-75
2021/07/10 04:42:59;;;;;;;28.80;16.15;;;15.60;99.90;;;;;;4985737;28;20132;-75
2021/07/10 04:45:24;;;;;;;25.92;15.55;;;15.50;99.90;;;;;;5002876;28;20164;-75
2021/07/10 04:47:50;;;;;;;26.15;15.63;;;15.50;99.90;;;;;;5003255;28;20030;-75
2021/07/10 04:50:16;;;;;;;24.30;14.75;;;15.50;99.90;;;;;;4985135;28;20424;-75
2021/07/10 04:52:42;;;;;;;21.70;15.20;;;15.60;99.90;;;;;;5002290;28;20552;-75
2021/07/10 04:55:12;;;;;;;18.80;13.57;;;15.50;99.90;;;;;;5003196;28;20386;-75
2021/07/10 04:57:38;;;;;;;23.58;13.18;;;15.60;99.90;;;;;;4985284;28;20103;-75
2021/07/10 05:00:05;;;;;;;17.95;13.85;;;15.60;99.90;;;;;;5002569;28;20116;-75
2021/07/10 05:02:31;;;;;;;19.83;13.70;;;15.60;99.90;;;;;;5004770;28;20378;-75
2021/07/10 05:04:57;;;;;;;20.98;14.88;;;15.60;99.80;;;;;;5002663;28;20037;-74
2021/07/10 05:07:23;;;;;;;21.80;14.05;;;15.60;99.80;;;;;;5003081;28;20030;-75
2021/07/10 05:09:49;;;;;;;20.55;13.88;;;15.60;99.70;;;;;;5002627;28;20023;-75
2021/07/10 05:12:16;;;;;;;26.52;15.18;;;15.60;99.80;;;;;;5002693;28;20033;-75
2021/07/10 05:14:42;;;;;;;23.73;14.20;;;15.70;99.90;;;;;;5002723;28;20038;-74
2021/07/10 05:17:07;;;;;;;23.42;15.52;;;15.80;99.80;;;;;;4985128;28;20186;-75
2021/07/10 05:19:33;;;;;;;29.30;14.13;;;15.90;99.70;;;;;;4985349;28;20998;-75
2021/07/10 05:21:58;;;;;;;23.33;14.88;;;16.00;99.60;;;;;;5002430;28;20042;-75
2021/07/10 05:24:24;;;;;;;25.40;15.25;;;16.00;99.50;;;;;;5001466;28;20536;-75
2021/07/10 05:26:49;;;;;;;25.05;15.18;;;16.10;99.50;;;;;;4984662;28;20033;-75
2021/07/10 05:29:16;;;;;;;20.90;15.27;;;16.10;99.40;;;;;;5002631;28;20022;-75
2021/07/10 05:31:41;;;;;;;22.08;15.27;;;16.30;99.30;;;;;;5001822;28;20104;-76
2021/07/10 05:34:07;;;;;;;29.05;15.32;;;16.50;99.20;;;;;;5001176;28;20117;-76
2021/07/10 05:36:32;;;;;;;20.33;13.15;;;16.70;98.90;;;;;;5003070;28;20038;-76
2021/07/10 05:38:58;;;;;;;24.77;16.05;;;16.70;98.40;;;;;;4986121;28;20042;-75
2021/07/10 05:41:23;;;;;;;18.02;13.75;;;16.70;98.50;;;;;;5001779;28;20068;-75
2021/07/10 05:43:49;;;;;;;18.05;14.13;;;16.60;98.40;;;;;;5001861;28;20056;-76
2021/07/10 05:46:14;;;;;;;21.45;14.90;;;16.60;98.40;;;;;;5002428;28;20101;-76
2021/07/10 05:48:40;;;;;;;15.45;13.60;;;16.50;98.30;;;;;;5001339;28;20028;-75
2021/07/10 05:51:05;;;;;;;24.17;15.05;;;16.50;98.30;;;;;;5001584;28;20023;-75
2021/07/10 05:53:31;;;;;;;18.10;13.40;;;16.50;98.40;;;;;;5001956;28;20106;-75
2021/07/10 05:55:57;;;;;;;21.45;13.98;;;16.50;98.30;;;;;;5002092;28;20136;-75
2021/07/10 05:58:22;;;;;;;24.00;17.80;;;16.50;98.30;;;;;;4984688;28;20037;-75
2021/07/10 06:00:48;;;;;;;19.13;13.27;;;16.60;98.40;;;;;;5002020;28;20041;-75
2021/07/10 06:03:13;;;;;;;19.05;15.07;;;16.70;98.10;;;;;;5001758;28;20034;-76
2021/07/10 06:05:39;;;;;;;20.65;14.35;;;16.70;98.00;;;;;;5000860;28;20022;-75
2021/07/10 06:08:05;;;;;;;24.75;14.18;;;16.70;98.10;;;;;;5002044;28;20122;-75
2021/07/10 06:10:30;;;;;;;21.65;14.32;;;16.80;98.00;;;;;;5001027;28;20054;-73
2021/07/10 06:12:56;;;;;;;16.52;13.75;;;16.80;98.20;;;;;;4983242;28;20019;-74
2021/07/10 06:15:22;;;;;;;22.42;13.75;;;17.10;98.30;;;;;;5001426;28;20026;-74
2021/07/10 06:17:47;;;;;;;16.58;12.38;;;17.30;97.60;;;;;;4999285;28;20034;-74
2021/07/10 06:20:15;;;;;;;21.65;12.48;;;17.30;97.30;;;;;;5001142;28;20073;-74
2021/07/10 06:22:43;;;;;;;19.88;12.40;;;17.40;97.30;;;;;;4991698;28;20034;-75
2021/07/10 06:25:09;;;;;;;16.92;13.00;;;17.40;97.10;;;;;;5001389;28;20484;-74
2021/07/10 06:27:35;;;;;;;21.75;14.05;;;17.40;97.30;;;;;;4983644;28;20524;-74
2021/07/10 06:30:00;;;;;;;24.80;12.70;;;17.50;97.20;;;;;;4982623;28;20030;-74
2021/07/10 06:32:26;;;;;;;16.05;13.52;;;17.60;96.80;;;;;;5001518;28;20080;-74
2021/07/10 06:34:51;;;;;;;18.00;12.93;;;17.70;96.80;;;;;;5000769;28;20062;-74
2021/07/10 06:37:19;;;;;;;16.67;11.95;;;17.90;96.90;;;;;;4999790;28;20026;-75
2021/07/10 06:39:45;;;;;;;39.92;11.27;;;18.00;96.40;;;;;;4999429;28;20026;-75
2021/07/10 06:42:11;;;;;;;16.42;11.73;;;18.10;96.40;;;;;;5042724;23;20111;-69
2021/07/10 06:44:36;;;;;;;16.40;11.65;;;18.40;96.20;;;;;;5001164;28;20041;-70
2021/07/10 06:47:02;;;;;;;15.50;11.55;;;18.50;96.00;;;;;;5020079;28;20037;-70
2021/07/10 06:49:27;;;;;;;12.30;10.68;;;18.70;95.50;;;;;;5017011;28;20454;-80
2021/07/10 06:51:54;;;;;;;18.77;9.60;;;18.90;95.10;;;;;;5016534;28;20021;-75
2021/07/10 06:54:20;;;;;;;13.00;9.93;;;19.10;95.70;;;;;;5015728;28;20380;-75
2021/07/10 06:56:46;;;;;;;13.07;9.93;;;19.50;94.90;;;;;;5001075;28;20025;-75
2021/07/10 06:59:11;;;;;;;17.27;9.75;;;19.70;94.50;;;;;;5016168;28;20029;-74
2021/07/10 07:01:38;;;;;;;12.82;8.48;;;19.90;94.20;;;;;;5018420;28;20021;-73
2021/07/10 07:04:04;;;;;;;17.50;8.70;;;20.00;93.40;;;;;;5018624;28;20030;-74
2021/07/10 07:06:29;;;;;;;11.43;8.05;;;20.00;93.60;;;;;;5017052;28;20091;-73
2021/07/10 07:08:55;;;;;;;11.57;8.35;;;20.00;92.80;;;;;;5017731;28;20044;-76
2021/07/10 07:11:20;;;;;;;12.60;8.38;;;20.00;92.70;;;;;;5015541;28;20037;-74
2021/07/10 07:13:45;;;;;;;14.05;8.52;;;20.10;92.10;;;;;;5019311;28;20033;-73
2021/07/10 07:16:11;;;;;;;11.93;7.63;;;20.10;92.60;;;;;;5020194;28;20089;-74
2021/07/10 07:18:36;;;;;;;7.70;6.25;;;20.30;92.60;;;;;;5017987;28;20041;-74
2021/07/10 07:21:02;;;;;;;9.15;6.97;;;20.30;90.80;;;;;;5018545;28;20040;-74
2021/07/10 07:23:28;;;;;;;10.43;8.68;;;20.30;91.80;;;;;;5019327;28;20065;-74
2021/07/10 07:25:54;;;;;;;9.65;7.85;;;20.50;91.90;;;;;;5017135;28;20061;-74
2021/07/10 07:28:19;;;;;;;11.43;7.22;;;20.70;91.60;;;;;;5018780;28;20492;-74
2021/07/10 07:30:45;;;;;;;11.60;7.35;;;20.70;90.80;;;;;;5017699;28;20038;-74
2021/07/10 07:33:10;;;;;;;8.05;6.10;;;20.90;90.80;;;;;;5017145;28;20060;-75
2021/07/10 07:35:36;;;;;;;8.90;7.80;;;20.80;90.30;;;;;;5018664;28;20032;-74
2021/07/10 07:38:02;;;;;;;9.13;5.88;;;20.70;91.00;;;;;;5018372;28;20041;-75
2021/07/10 07:40:27;;;;;;;7.38;6.15;;;20.70;90.50;;;;;;5017577;28;20025;-75
2021/07/10 07:42:53;;;;;;;9.13;5.80;;;20.70;88.50;;;;;;5018990;28;20044;-75
2021/07/10 07:45:20;;;;;;;7.53;5.32;;;20.60;90.20;;;;;;5019323;28;20018;-74
2021/07/10 07:47:46;;;;;;;9.98;5.70;;;20.40;88.00;;;;;;5015759;28;20025;-74
2021/07/10 07:50:14;;;;;;;8.55;6.35;;;20.40;88.90;;;;;;5016433;28;20029;-74
2021/07/10 07:52:40;;;;;;;9.30;6.07;;;20.60;90.10;;;;;;5018367;28;20109;-75
2021/07/10 07:55:08;;;;;;;12.90;6.68;;;20.70;90.10;;;;;;5018566;28;20036;-75
2021/07/10 07:57:33;;;;;;;8.30;5.75;;;20.80;89.90;;;;;;5016641;28;20045;-75
2021/07/10 07:59:59;;;;;;;8.07;5.35;;;20.90;89.70;;;;;;5018381;28;20074;-74
2021/07/10 08:02:24;;;;;;;11.30;5.15;;;21.10;89.50;;;;;;5017153;28;20029;-74
2021/07/10 08:04:51;;;;;;;9.63;5.10;;;21.10;89.90;;;;;;5018453;28;20025;-75
2021/07/10 08:07:17;;;;;;;9.15;6.40;;;21.20;88.70;;;;;;5018255;28;20040;-70
2021/07/10 08:09:43;;;;;;;13.05;6.70;;;21.20;87.30;;;;;;5017882;28;20045;-70
2021/07/10 08:12:10;;;;;;;7.80;6.18;;;21.00;87.50;;;;;;5019026;28;20026;-70
2021/07/10 08:14:36;;;;;;;17.52;5.97;;;20.80;88.30;;;;;;5017133;28;20029;-70
2021/07/10 08:17:03;;;;;;;20.17;5.85;;;20.80;88.30;;;;;;5015152;28;20041;-70
2021/07/10 08:19:29;;;;;;;32.60;7.75;;;20.70;85.60;;;;;;5015672;28;20026;-70
2021/07/10 08:21:55;;;;;;;13.80;6.60;;;20.50;87.50;;;;;;5017393;28;20034;-71
2021/07/10 08:24:20;;;;;;;6.78;5.30;;;20.50;87.10;;;;;;5017275;28;20029;-70
2021/07/10 08:26:46;;;;;;;19.00;7.13;;;20.40;88.00;;;;;;5017310;28;20500;-71
2021/07/10 08:29:11;;;;;;;12.57;5.80;;;20.40;89.00;;;;;;5011720;28;20105;-71
2021/07/10 08:31:40;;;;;;;19.05;7.60;;;20.40;89.30;;;;;;5019080;28;20044;-71
2021/07/10 08:34:06;;;;;;;14.63;6.25;;;20.50;88.50;;;;;;5015257;28;20712;-72
2021/07/10 08:36:33;;;;;;;8.43;5.85;;;20.50;88.80;;;;;;5018492;28;20108;-71
2021/07/10 08:39:00;;;;;;;7.07;6.00;;;20.60;87.70;;;;;;5016207;28;20034;-72
2021/07/10 08:41:25;;;;;;;6.93;5.72;;;20.60;87.80;;;;;;5016916;28;20033;-71
2021/07/10 08:43:51;;;;;;;11.70;6.40;;;20.50;86.60;;;;;;5019178;28;20025;-71
2021/07/10 08:46:20;;;;;;;33.42;8.30;;;20.50;87.90;;;;;;5018741;28;20036;-71
2021/07/10 08:48:45;;;;;;;19.85;9.57;;;20.60;87.50;;;;;;5001419;28;20033;-72
2021/07/10 08:51:13;;;;;;;9.75;6.88;;;20.70;88.10;;;;;;5001267;28;20029;-72
2021/07/10 08:53:39;;;;;;;7.35;5.88;;;20.90;87.20;;;;;;5000810;28;20022;-72
2021/07/10 08:56:06;;;;;;;10.63;7.50;;;21.00;86.90;;;;;;5018313;28;20033;-72
2021/07/10 08:58:32;;;;;;;12.15;7.03;;;21.00;87.40;;;;;;5016842;28;20504;-71
2021/07/10 09:00:58;;;;;;;9.15;7.30;;;21.10;87.70;;;;;;5020867;28;20040;-72
2021/07/10 09:03:23;;;;;;;11.05;7.65;;;21.00;86.20;;;;;;5005388;28;20028;-72
2021/07/10 09:05:49;;;;;;;16.13;7.88;;;21.00;86.80;;;;;;5022192;28;20030;-72
2021/07/10 09:08:21;;;;;;;8.15;6.70;;;21.00;87.50;;;;;;5020315;28;20042;-72
2021/07/10 09:10:54;;;;;;;11.35;7.75;;;21.10;88.20;;;;;;5018394;28;20032;-72
2021/07/10 09:13:28;;;;;;;10.85;8.32;;;21.20;87.90;;;;;;5034605;28;20022;-72
2021/07/10 09:16:00;;;;;;;13.07;7.65;;;21.40;87.20;;;;;;5015313;28;20060;-72
2021/07/10 09:18:35;;;;;;;10.25;8.60;;;21.30;86.10;;;;;;5017252;28;20038;-73
2021/07/10 09:21:01;;;;;;;10.82;7.93;;;21.30;87.60;;;;;;5018454;28;20046;-73
2021/07/10 09:23:38;;;;;;;12.05;7.97;;;21.40;87.50;;;;;;5022601;28;20535;-72
2021/07/10 09:26:21;;;;;;;11.55;8.48;;;21.50;87.60;;;;;;5020801;28;20033;-73
2021/07/10 09:29:03;;;;;;;12.45;8.35;;;21.70;87.50;;;;;;5020860;28;20037;-72
2021/07/10 09:31:42;;;;;;;12.30;7.40;;;21.80;86.70;;;;;;5020224;28;20032;-72
2021/07/10 09:34:19;;;;;;;9.60;8.65;;;21.80;86.60;;;;;;5021303;28;20026;-72
2021/07/10 09:37:01;;;;;;;10.10;7.75;;;21.90;86.80;;;;;;5021616;28;20022;-73
2021/07/10 09:39:31;;;;;;;10.50;7.68;;;21.90;86.20;;;;;;5020398;28;20029;-72
2021/07/10 09:41:58;;;;;;;8.43;7.22;;;21.90;86.30;;;;;;5019642;28;20121;-73
2021/07/10 09:44:24;;;;;;;10.85;7.50;;;22.00;86.60;;;;;;5035976;28;20021;-73
2021/07/10 09:46:50;;;;;;;17.23;10.30;;;22.20;86.40;;;;;;5020231;28;20045;-73
2021/07/10 09:49:23;;;;;;;11.82;9.00;;;22.30;86.40;;;;;;5020247;28;20020;-72
2021/07/10 09:51:57;;;;;;;10.80;9.63;;;22.50;84.50;;;;;;5020038;28;20018;-73
2021/07/10 09:54:34;;;;;;;9.82;8.82;;;22.50;85.00;;;;;;5021120;28;20551;-73
2021/07/10 09:57:07;;;;;;;13.52;7.68;;;22.60;84.20;;;;;;5019703;28;20033;-72
2021/07/10 09:59:38;;;;;;;12.88;11.18;;;22.50;83.40;;;;;;5019805;28;20045;-72
2021/07/10 10:02:14;;;;;;;12.13;7.47;;;22.30;83.40;;;;;;5021021;28;20052;-73
2021/07/10 10:04:40;;;;;;;12.35;7.28;;;22.30;83.20;;;;;;5019665;28;20022;-73
2021/07/10 10:07:15;;;;;;;8.93;7.05;;;22.20;84.10;;;;;;5020775;28;20040;-72
2021/07/10 10:09:42;;;;;;;11.43;6.78;;;22.30;83.40;;;;;;5019771;28;20060;-73
2021/07/10 10:12:12;;;;;;;8.63;6.35;;;22.40;83.10;;;;;;5020836;28;20049;-73
2021/07/10 10:14:50;;;;;;;11.10;6.25;;;22.50;83.40;;;;;;5020065;28;20113;-73
2021/07/10 10:17:19;;;;;;;12.30;7.53;;;22.70;84.50;;;;;;5020665;28;20117;-73
2021/07/10 10:19:45;;;;;;;7.32;5.38;;;23.20;83.60;;;;;;5020362;28;20452;-73
2021/07/10 10:22:13;;;;;;;6.93;5.90;;;23.50;83.10;;;;;;5020760;28;20069;-73
2021/07/10 10:24:42;;;;;;;6.75;5.95;;;23.60;79.90;;;;;;5020834;28;20025;-73
2021/07/10 10:27:08;;;;;;;6.60;5.90;;;23.60;79.30;;;;;;5020505;28;20057;-73
2021/07/10 10:29:34;;;;;;;10.95;6.80;;;23.70;81.10;;;;;;5018146;28;20026;-73
2021/07/10 10:32:01;;;;;;;10.95;5.97;;;23.90;80.10;;;;;;5013013;28;20025;-73
2021/07/10 10:34:27;;;;;;;9.77;6.85;;;24.20;80.40;;;;;;5017824;28;20075;-73
2021/07/10 10:36:54;;;;;;;6.30;5.65;;;24.40;79.70;;;;;;5017150;28;20057;-73
2021/07/10 10:39:23;;;;;;;8.10;7.03;;;24.20;77.10;;;;;;5019672;28;20574;-73
2021/07/10 10:41:55;;;;;;;8.32;5.28;;;23.90;76.10;;;;;;5019875;28;20040;-73
2021/07/10 10:44:20;;;;;;;7.32;6.22;;;23.70;78.30;;;;;;5032993;28;20520;-74
2021/07/10 10:46:55;;;;;;;7.68;6.72;;;23.50;77.90;;;;;;5003253;28;20044;-73
2021/07/10 10:49:53;;;;;;;5.72;4.90;;;23.30;78.70;;;;;;5016181;28;20121;-73
2021/07/10 10:52:42;;;;;;;9.15;5.75;;;23.50;80.00;;;;;;5017967;28;20344;-73
2021/07/10 10:55:33;;;;;;;6.03;5.40;;;23.70;77.90;;;;;;5035432;28;20028;-73
2021/07/10 10:58:19;;;;;;;9.93;6.15;;;23.60;76.90;;;;;;5013731;28;20724;-74
2021/07/10 11:00:47;;;;;;;9.13;5.90;;;23.50;77.90;;;;;;5017176;28;20034;-73
2021/07/10 11:03:14;;;;;;;8.70;5.38;;;23.40;76.30;;;;;;5019353;28;20120;-73
2021/07/10 11:05:41;;;;;;;8.30;6.13;;;23.30;76.80;;;;;;5018721;28;20029;-73
2021/07/10 11:08:21;;;;;;;7.40;5.18;;;23.50;76.00;;;;;;5019884;28;20432;-73
2021/07/10 11:11:07;;;;;;;9.00;5.40;;;23.70;75.10;;;;;;5018511;28;20072;-78
2021/07/10 11:13:36;;;;;;;5.90;4.55;;;23.80;76.50;;;;;;5014260;28;20049;-77
2021/07/10 11:16:10;;;;;;;7.78;4.47;;;24.10;76.50;;;;;;5019473;28;20025;-77
2021/07/10 11:18:54;;;;;;;6.82;4.57;;;24.50;75.10;;;;;;5020348;28;20021;-77
2021/07/10 11:21:35;;;;;;;5.00;4.50;;;24.80;74.60;;;;;;5031281;28;20030;-77
2021/07/10 11:24:16;;;;;;;5.00;4.50;;;24.90;71.90;;;;;;5019090;28;20021;-77
2021/07/10 11:26:54;;;;;;;6.45;4.55;;;24.80;73.50;;;;;;5013009;28;20076;-77
2021/07/10 11:29:30;;;;;;;5.05;4.22;;;24.70;72.70;;;;;;5005446;28;20057;-77
2021/07/10 11:32:11;;;;;;;7.03;4.07;;;24.70;71.20;;;;;;5014387;28;20083;-77
2021/07/10 11:34:59;;;;;;;6.80;4.22;;;24.60;70.40;;;;;;5024601;28;20552;-77
2021/07/10 11:37:27;;;;;;;6.85;4.45;;;24.70;71.40;;;;;;5006765;28;20061;-77
2021/07/10 11:39:53;;;;;;;6.53;4.13;;;25.00;71.20;;;;;;5021431;28;20029;-77
2021/07/10 11:42:18;;;;;;;6.57;4.93;;;25.30;69.70;;;;;;5016760;28;20045;-77
2021/07/10 11:44:46;;;;;;;5.97;3.90;;;25.50;69.90;;;;;;5017357;28;20033;-77
2021/07/10 11:47:12;;;;;;;4.90;4.40;;;25.50;69.80;;;;;;5020978;28;20021;-77
2021/07/10 11:49:40;;;;;;;4.68;4.18;;;25.70;70.10;;;;;;5017194;28;20116;-77
2021/07/10 11:52:13;;;;;;;5.95;4.53;;;25.80;69.70;;;;;;5020196;28;20018;-77
2021/07/10 11:54:50;;;;;;;5.75;4.35;;;25.90;68.70;;;;;;5020492;28;20368;-77
2021/07/10 11:57:17;;;;;;;5.38;3.70;;;26.00;68.80;;;;;;5018646;28;20051;-78
2021/07/10 11:59:44;;;;;;;6.50;4.03;;;26.10;68.60;;;;;;5007015;28;20087;-77
2021/07/10 12:02:15;;;;;;;4.80;4.35;;;26.10;68.10;;;;;;5020888;28;20030;-76
2021/07/10 12:04:58;;;;;;;4.10;3.67;;;25.90;66.90;;;;;;5020192;28;20109;-77
2021/07/10 12:07:24;;;;;;;4.32;3.85;;;25.90;65.60;;;;;;5004304;28;20052;-76
2021/07/10 12:09:51;;;;;;;4.18;3.50;;;25.70;64.90;;;;;;5018288;28;20057;-77
2021/07/10 12:12:17;;;;;;;3.47;3.17;;;25.50;66.30;;;;;;5021826;28;20475;-77
2021/07/10 12:14:53;;;;;;;4.78;4.03;;;25.70;67.80;;;;;;5018864;28;20061;-77
2021/07/10 12:17:20;;;;;;;4.95;3.75;;;25.90;67.50;;;;;;5019471;28;20025;-77
2021/07/10 12:19:47;;;;;;;3.42;3.13;;;26.20;67.70;;;;;;5005998;28;20038;-77
2021/07/10 12:22:13;;;;;;;4.95;4.00;;;26.30;67.50;;;;;;5021297;28;20364;-78
2021/07/10 12:24:38;;;;;;;3.97;3.08;;;26.20;66.20;;;;;;5018739;28;20028;-77
2021/07/10 12:27:12;;;;;;;4.43;3.90;;;25.90;63.80;;;;;;5020841;28;20041;-78
2021/07/10 12:29:38;;;;;;;5.32;4.15;;;25.70;63.90;;;;;;5015357;28;20022;-77
2021/07/10 12:32:13;;;;;;;6.18;4.30;;;25.70;64.40;;;;;;5021477;28;20021;-77
2021/07/10 12:34:46;;;;;;;4.85;4.32;;;25.70;64.70;;;;;;5018605;28;20069;-77